createdAt,value
2022-12-14T00:01:57.763Z,3.53
2022-12-14T00:04:24.349Z,3.00
2022-12-14T00:06:50.701Z,2.97
2022-12-14T00:09:17.734Z,4.30
2022-12-14T00:11:44.192Z,3.83
2022-12-14T00:14:10.709Z,3.33
2022-12-14T00:16:38.301Z,4.57
2022-12-14T00:19:05.984Z,4.53
2022-12-14T00:21:33.134Z,4.53
2022-12-14T00:24:02.537Z,3.17
2022-12-14T00:26:31.610Z,3.23
2022-12-14T00:28:59.325Z,3.80
2022-12-14T00:31:34.611Z,3.53
2022-12-14T00:34:01.585Z,4.10
2022-12-14T00:36:32.781Z,3.63
2022-12-14T00:39:00.723Z,4.43
2022-12-14T00:41:30.011Z,4.47
2022-12-14T00:43:58.113Z,4.63
2022-12-14T00:46:26.804Z,4.00
2022-12-14T00:48:53.693Z,4.00
2022-12-14T00:51:21.686Z,3.53
2022-12-14T00:53:49.873Z,3.07
2022-12-14T00:56:18.527Z,3.73
2022-12-14T00:58:50.900Z,3.37
2022-12-14T01:01:18.926Z,3.40
2022-12-14T01:03:46.901Z,4.33
2022-12-14T01:06:15.003Z,4.50
2022-12-14T01:08:41.894Z,4.27
2022-12-14T01:11:11.352Z,3.90
2022-12-14T01:13:41.830Z,4.03
2022-12-14T01:16:13.468Z,3.27
2022-12-14T01:18:43.727Z,2.63
2022-12-14T01:21:17.966Z,2.93
2022-12-14T01:23:46.253Z,3.70
2022-12-14T01:26:17.746Z,3.63
2022-12-14T01:28:46.857Z,3.30
2022-12-14T01:31:14.938Z,3.13
2022-12-14T01:33:41.906Z,3.13
2022-12-14T01:36:13.012Z,5.20
2022-12-14T01:38:41.915Z,3.00
2022-12-14T01:41:20.460Z,3.27
2022-12-14T01:43:51.734Z,3.10
2022-12-14T01:46:21.247Z,3.23
2022-12-14T01:48:54.766Z,4.20
2022-12-14T01:51:21.812Z,3.57
2022-12-14T01:53:53.533Z,4.47
2022-12-14T01:56:24.125Z,3.50
2022-12-14T01:58:51.838Z,2.80
2022-12-14T02:01:18.640Z,3.33
2022-12-14T02:03:48.141Z,2.77
2022-12-14T02:06:24.922Z,3.30
2022-12-14T02:08:56.642Z,3.93
2022-12-14T02:11:28.699Z,2.00
2022-12-14T02:13:58.106Z,2.70
2022-12-14T02:16:27.908Z,3.33
2022-12-14T02:18:57.430Z,3.23
2022-12-14T02:24:38.790Z,3.37
2022-12-14T02:27:24.219Z,2.87
2022-12-14T02:30:00.812Z,3.23
2022-12-14T02:32:35.030Z,4.60
2022-12-14T02:35:07.270Z,2.60
2022-12-14T02:41:22.519Z,3.93
2022-12-14T02:44:08.022Z,3.20
2022-12-14T02:46:47.367Z,2.63
2022-12-14T02:49:38.528Z,3.00
2022-12-14T02:52:14.863Z,2.50
2022-12-14T02:54:56.653Z,2.92
2022-12-14T02:57:29.045Z,2.40
2022-12-14T02:59:58.050Z,2.60
2022-12-14T03:02:25.403Z,2.73
2022-12-14T03:04:52.025Z,2.97
2022-12-14T03:07:42.774Z,2.20
2022-12-14T03:10:28.087Z,3.75
2022-12-14T03:13:27.356Z,2.73
2022-12-14T03:16:01.980Z,2.50
2022-12-14T03:18:30.814Z,2.43
2022-12-14T03:21:02.958Z,2.90
2022-12-14T03:23:33.045Z,3.07
2022-12-14T03:26:12.354Z,3.23
2022-12-14T03:29:01.536Z,2.60
2022-12-14T03:31:28.064Z,2.83
2022-12-14T03:33:57.552Z,2.03
2022-12-14T03:36:24.226Z,3.17
2022-12-14T03:38:54.512Z,2.70
2022-12-14T03:41:37.270Z,2.80
2022-12-14T03:44:49.271Z,2.73
2022-12-14T03:47:28.760Z,2.67
2022-12-14T03:49:59.231Z,3.10
2022-12-14T03:52:28.787Z,2.90
2022-12-14T03:55:03.311Z,2.10
2022-12-14T03:57:48.104Z,2.78
2022-12-14T04:00:20.627Z,3.43
2022-12-14T04:02:52.379Z,2.93
2022-12-14T04:05:27.757Z,2.40
2022-12-14T04:08:16.961Z,2.50
2022-12-14T04:11:05.175Z,2.17
2022-12-14T04:13:55.919Z,3.33
2022-12-14T04:16:43.762Z,2.70
2022-12-14T04:19:27.504Z,2.53
2022-12-14T04:21:57.703Z,2.00
2022-12-14T04:24:44.415Z,2.50
2022-12-14T04:27:17.853Z,2.97
2022-12-14T04:29:57.958Z,2.97
2022-12-14T04:32:36.712Z,2.40
2022-12-14T04:35:11.286Z,2.70
2022-12-14T04:37:39.427Z,2.70
2022-12-14T04:40:10.356Z,3.17
2022-12-14T04:42:47.508Z,2.30
2022-12-14T04:45:16.984Z,2.72
2022-12-14T04:47:51.485Z,3.63
2022-12-14T04:50:23.048Z,2.23
2022-12-14T04:53:04.476Z,2.87
2022-12-14T04:55:36.716Z,2.10
2022-12-14T04:58:15.420Z,2.40
2022-12-14T05:00:49.682Z,2.90
2022-12-14T05:03:32.892Z,2.33
2022-12-14T05:06:18.111Z,1.90
2022-12-14T05:09:03.274Z,2.23
2022-12-14T05:11:52.495Z,2.87
2022-12-14T05:14:19.968Z,2.43
2022-12-14T05:16:48.959Z,3.10
2022-12-14T05:19:15.788Z,3.67
2022-12-14T05:21:48.230Z,3.00
2022-12-14T05:24:15.086Z,2.37
2022-12-14T05:26:41.510Z,2.10
2022-12-14T05:29:09.533Z,2.70
2022-12-14T05:31:35.869Z,3.20
2022-12-14T05:34:02.239Z,2.60
2022-12-14T05:36:28.883Z,2.40
2022-12-14T05:38:55.174Z,2.30
2022-12-14T05:41:22.061Z,2.67
2022-12-14T05:43:49.011Z,2.50
2022-12-14T05:46:16.121Z,3.57
2022-12-14T05:48:47.444Z,2.47
2022-12-14T05:51:15.640Z,2.30
2022-12-14T05:53:42.115Z,2.27
2022-12-14T05:56:09.880Z,2.77
2022-12-14T05:58:36.495Z,2.30
2022-12-14T06:01:03.845Z,2.60
2022-12-14T06:03:30.733Z,2.47
2022-12-14T06:06:01.888Z,3.07
2022-12-14T06:08:30.621Z,3.03
2022-12-14T06:11:01.912Z,2.93
2022-12-14T06:13:28.511Z,3.73
2022-12-14T06:15:55.151Z,2.10
2022-12-14T06:18:23.351Z,2.40
2022-12-14T06:20:49.675Z,3.60
2022-12-14T06:23:15.999Z,3.00
2022-12-14T06:25:42.254Z,2.80
2022-12-14T06:28:08.747Z,2.83
2022-12-14T06:30:35.421Z,2.57
2022-12-14T06:33:01.713Z,2.27
2022-12-14T06:35:28.024Z,3.03
2022-12-14T06:37:54.552Z,3.40
2022-12-14T06:40:20.830Z,2.47
2022-12-14T06:42:47.222Z,2.70
2022-12-14T06:45:13.520Z,3.87
2022-12-14T06:47:40.655Z,2.43
2022-12-14T06:50:07.175Z,2.03
2022-12-14T06:52:33.481Z,3.07
2022-12-14T06:54:59.767Z,2.93
2022-12-14T06:57:27.070Z,2.63
2022-12-14T06:59:53.394Z,3.17
2022-12-14T07:02:20.055Z,4.00
2022-12-14T07:04:46.574Z,2.70
2022-12-14T07:07:12.908Z,3.00
2022-12-14T07:09:39.437Z,2.63
2022-12-14T07:12:05.881Z,2.47
2022-12-14T07:14:32.208Z,3.17
2022-12-14T07:16:58.494Z,2.50
2022-12-14T07:19:24.798Z,2.20
2022-12-14T07:21:51.074Z,2.10
2022-12-14T07:24:17.553Z,3.40
2022-12-14T07:26:44.064Z,2.70
2022-12-14T07:29:11.926Z,3.10
2022-12-14T07:31:38.321Z,2.80
2022-12-14T07:34:04.692Z,2.57
2022-12-14T07:36:32.888Z,2.87
2022-12-14T07:38:59.243Z,2.63
2022-12-14T07:41:26.908Z,3.13
2022-12-14T07:43:54.118Z,2.43
2022-12-14T07:46:21.820Z,2.53
2022-12-14T07:48:49.591Z,2.67
2022-12-14T07:51:17.161Z,2.80
2022-12-14T07:53:43.974Z,2.83
2022-12-14T07:56:13.394Z,2.57
2022-12-14T07:58:39.777Z,2.50
2022-12-14T08:01:09.620Z,2.87
2022-12-14T08:03:35.973Z,2.97
2022-12-14T08:06:09.314Z,3.17
2022-12-14T08:08:36.082Z,3.23
2022-12-14T08:11:02.555Z,2.60
2022-12-14T08:13:29.371Z,3.47
2022-12-14T08:15:56.129Z,3.50
2022-12-14T08:18:22.673Z,3.10
2022-12-14T08:20:53.324Z,2.63
2022-12-14T08:23:19.974Z,2.70
2022-12-14T08:25:52.347Z,2.70
2022-12-14T08:28:18.726Z,2.93
2022-12-14T08:30:45.222Z,2.37
2022-12-14T08:33:11.564Z,2.70
2022-12-14T08:35:38.021Z,3.43
2022-12-14T08:38:04.329Z,3.03
2022-12-14T08:40:30.913Z,2.63
2022-12-14T08:42:57.197Z,3.63
2022-12-14T08:45:23.649Z,2.63
2022-12-14T08:47:49.969Z,3.77
2022-12-14T08:50:16.350Z,2.93
2022-12-14T08:52:42.703Z,2.60
2022-12-14T08:55:09.060Z,4.20
2022-12-14T08:57:35.714Z,3.73
2022-12-14T09:00:02.939Z,3.57
2022-12-14T09:02:29.820Z,2.97
2022-12-14T09:04:56.216Z,3.27
2022-12-14T09:07:22.507Z,2.40
2022-12-14T09:09:49.210Z,2.53
2022-12-14T09:12:15.543Z,3.43
2022-12-14T09:14:42.047Z,3.27
2022-12-14T09:17:08.327Z,3.93
2022-12-14T09:19:34.650Z,4.40
2022-12-14T09:22:00.985Z,2.53
2022-12-14T09:24:28.326Z,2.53
2022-12-14T09:26:54.856Z,3.23
2022-12-14T09:29:21.371Z,3.00
2022-12-14T09:31:48.024Z,2.40
2022-12-14T09:34:14.371Z,2.80
2022-12-14T09:36:40.730Z,2.87
2022-12-14T09:39:07.611Z,3.10
2022-12-14T09:41:35.458Z,2.47
2022-12-14T09:44:21.471Z,2.97
2022-12-14T09:46:48.168Z,3.03
2022-12-14T09:49:26.453Z,3.00
2022-12-14T09:51:53.875Z,3.17
2022-12-14T09:54:22.851Z,2.93
2022-12-14T09:56:49.239Z,3.60
2022-12-14T09:59:17.698Z,2.57
2022-12-14T10:02:13.912Z,3.07
2022-12-14T10:05:04.396Z,3.37
2022-12-14T10:07:56.864Z,2.97
2022-12-14T10:10:47.465Z,2.27
2022-12-14T10:13:22.688Z,3.43
2022-12-14T10:15:48.960Z,2.90
2022-12-14T10:18:57.651Z,2.70
2022-12-14T10:21:15.961Z,3.33
2022-12-14T10:23:45.539Z,2.80
2022-12-14T10:26:16.244Z,2.97
2022-12-14T10:28:46.220Z,3.37
2022-12-14T10:31:17.670Z,3.67
2022-12-14T10:33:45.661Z,2.70
2022-12-14T10:36:17.679Z,3.60
2022-12-14T10:38:45.168Z,3.20
2022-12-14T10:41:34.334Z,3.47
2022-12-14T10:44:00.682Z,3.17
2022-12-14T10:46:43.596Z,3.70
2022-12-14T10:49:16.274Z,3.40
2022-12-14T10:51:46.821Z,2.83
2022-12-14T10:54:28.413Z,2.50
2022-12-14T10:56:55.218Z,3.27
2022-12-14T10:59:21.676Z,3.37
2022-12-14T11:01:49.869Z,2.90
2022-12-14T11:04:29.766Z,3.10
2022-12-14T11:06:57.660Z,3.00
2022-12-14T11:09:25.037Z,3.43
2022-12-14T11:11:57.201Z,3.50
2022-12-14T11:14:23.886Z,3.63
2022-12-14T11:16:50.498Z,3.77
2022-12-14T11:19:22.437Z,3.73
2022-12-14T11:21:50.140Z,2.43
2022-12-14T11:24:22.206Z,3.33
2022-12-14T11:26:49.244Z,3.70
2022-12-14T11:29:18.003Z,2.57
2022-12-14T11:31:45.460Z,3.50
2022-12-14T11:34:33.233Z,3.30
2022-12-14T11:37:21.227Z,4.27
2022-12-14T11:40:01.173Z,3.13
2022-12-14T11:42:27.969Z,3.63
2022-12-14T11:44:54.428Z,3.57
2022-12-14T11:47:22.038Z,3.40
2022-12-14T11:49:50.412Z,3.03
2022-12-14T11:52:37.144Z,3.20
2022-12-14T11:55:27.057Z,3.88
2022-12-14T11:57:55.082Z,3.27
2022-12-14T12:00:25.700Z,2.70
2022-12-14T12:03:03.035Z,2.97
2022-12-14T12:05:31.969Z,3.83
2022-12-14T12:07:59.277Z,2.90
2022-12-14T12:10:27.485Z,2.97
2022-12-14T12:12:56.353Z,3.00
2022-12-14T12:15:26.808Z,3.87
2022-12-14T12:17:55.748Z,3.57
2022-12-14T12:20:32.195Z,3.70
2022-12-14T12:23:03.221Z,4.00
2022-12-14T12:25:36.969Z,4.20
2022-12-14T12:28:11.961Z,3.90
2022-12-14T12:30:40.808Z,3.77
2022-12-14T12:33:13.961Z,3.43
2022-12-14T12:35:45.730Z,3.53
2022-12-14T12:38:31.399Z,3.17
2022-12-14T12:41:06.297Z,3.37
2022-12-14T12:43:38.155Z,3.27
2022-12-14T12:46:06.299Z,2.67
2022-12-14T12:48:38.573Z,2.83
2022-12-14T12:51:09.903Z,3.13
2022-12-14T12:53:39.658Z,4.30
2022-12-14T12:56:32.342Z,3.43
2022-12-14T12:59:00.193Z,3.53
2022-12-14T13:01:32.914Z,3.13
2022-12-14T13:04:04.964Z,3.47
2022-12-14T13:06:34.809Z,2.60
2022-12-14T13:09:05.766Z,3.63
2022-12-14T13:11:35.306Z,3.37
2022-12-14T13:14:13.369Z,3.57
2022-12-14T13:16:42.316Z,3.20
2022-12-14T13:22:15.425Z,3.40
2022-12-14T13:24:42.907Z,3.10
2022-12-14T13:27:17.936Z,4.37
2022-12-14T13:30:03.605Z,2.90
2022-12-14T13:32:48.933Z,2.97
2022-12-14T13:35:15.308Z,3.03
2022-12-14T13:37:49.152Z,3.53
2022-12-14T13:40:35.484Z,3.40
2022-12-14T13:43:13.465Z,3.25
2022-12-14T13:45:45.713Z,3.93
2022-12-14T13:48:32.276Z,3.83
2022-12-14T13:51:02.320Z,2.87
2022-12-14T13:53:43.241Z,4.40
2022-12-14T13:56:25.265Z,3.47
2022-12-14T13:58:54.803Z,4.63
2022-12-14T14:01:48.014Z,3.37
2022-12-14T14:04:18.414Z,3.73
2022-12-14T14:06:46.066Z,4.10
2022-12-14T14:09:32.773Z,3.20
2022-12-14T14:12:00.521Z,3.40
2022-12-14T14:14:45.237Z,3.30
2022-12-14T14:17:16.657Z,3.37
2022-12-14T14:19:43.133Z,2.87
2022-12-14T14:22:26.252Z,3.93
2022-12-14T14:24:56.019Z,3.23
2022-12-14T14:27:23.985Z,3.70
2022-12-14T14:29:51.430Z,3.27
2022-12-14T14:32:32.320Z,3.10
2022-12-14T14:34:59.447Z,2.90
2022-12-14T14:37:28.385Z,3.47
2022-12-14T14:40:18.339Z,3.20
2022-12-14T14:42:52.433Z,3.20
2022-12-14T14:45:29.836Z,3.27
2022-12-14T14:47:58.085Z,3.63
2022-12-14T14:50:27.147Z,4.03
2022-12-14T14:53:01.015Z,3.23
2022-12-14T14:55:52.566Z,3.23
2022-12-14T14:58:27.703Z,4.00
2022-12-14T15:00:54.054Z,3.17
2022-12-14T15:03:22.513Z,3.97
2022-12-14T15:05:49.636Z,2.90
2022-12-14T15:08:18.500Z,3.50
2022-12-14T15:10:46.211Z,3.27
2022-12-14T15:13:21.063Z,3.27
2022-12-14T15:15:49.654Z,3.33
2022-12-14T15:18:26.639Z,4.10
2022-12-14T15:20:59.074Z,3.13
2022-12-14T15:23:35.402Z,3.23
2022-12-14T15:26:02.529Z,3.63
2022-12-14T15:28:29.585Z,3.50
2022-12-14T15:30:58.971Z,3.80
2022-12-14T15:33:35.281Z,2.80
2022-12-14T15:36:02.712Z,3.10
2022-12-14T15:38:33.572Z,2.70
2022-12-14T15:41:04.699Z,4.47
2022-12-14T15:43:32.129Z,3.63
2022-12-14T15:46:04.201Z,4.10
2022-12-14T15:48:32.832Z,3.57
2022-12-14T15:51:02.990Z,3.37
2022-12-14T15:53:37.577Z,3.23
2022-12-14T15:56:14.958Z,3.20
2022-12-14T15:58:43.038Z,2.70
2022-12-14T16:01:12.376Z,3.10
2022-12-14T16:03:44.682Z,4.47
2022-12-14T16:06:13.313Z,3.77
2022-12-14T16:08:42.231Z,3.70
2022-12-14T16:11:22.679Z,5.00
2022-12-14T16:13:49.745Z,3.20
2022-12-14T16:16:16.339Z,3.47
2022-12-14T16:18:44.141Z,2.83
2022-12-14T16:21:30.927Z,3.63
2022-12-14T16:23:57.950Z,2.80
2022-12-14T16:26:37.372Z,3.40
2022-12-14T16:29:09.004Z,3.10
2022-12-14T16:31:37.028Z,3.40
2022-12-14T16:34:08.619Z,3.80
2022-12-14T16:36:36.697Z,3.90
2022-12-14T16:39:14.804Z,3.37
2022-12-14T16:41:44.075Z,3.00
2022-12-14T16:44:20.671Z,2.73
2022-12-14T16:49:18.843Z,3.47
2022-12-14T16:52:06.439Z,3.00
2022-12-14T16:54:33.284Z,3.30
2022-12-14T16:57:01.294Z,3.50
2022-12-14T16:59:41.338Z,3.90
2022-12-14T17:02:26.766Z,3.13
2022-12-14T17:04:53.773Z,2.73
2022-12-14T17:07:24.160Z,4.03
2022-12-14T17:09:50.815Z,3.07
2022-12-14T17:12:17.899Z,2.87
2022-12-14T17:14:49.408Z,3.43
2022-12-14T17:17:17.947Z,3.97
2022-12-14T17:19:44.755Z,3.50
2022-12-14T17:22:18.158Z,3.50
2022-12-14T17:24:44.596Z,5.43
2022-12-14T17:27:18.171Z,3.57
2022-12-14T17:29:44.541Z,3.37
2022-12-14T17:32:12.739Z,3.50
2022-12-14T17:34:39.553Z,3.80
2022-12-14T17:37:12.842Z,3.50
2022-12-14T17:39:39.135Z,3.57
2022-12-14T17:42:05.689Z,3.80
2022-12-14T17:44:32.038Z,4.53
2022-12-14T17:46:58.561Z,3.83
2022-12-14T17:49:34.322Z,3.03
2022-12-14T17:52:05.336Z,3.25
2022-12-14T17:54:32.163Z,4.67
2022-12-14T17:56:59.309Z,4.73
2022-12-14T17:59:25.903Z,4.17
2022-12-14T18:01:52.354Z,4.47
2022-12-14T18:04:18.688Z,4.60
2022-12-14T18:06:45.005Z,4.07
2022-12-14T18:09:12.325Z,5.27
2022-12-14T18:11:54.208Z,4.47
2022-12-14T18:14:25.233Z,3.92
2022-12-14T18:16:51.655Z,5.63
2022-12-14T18:19:18.060Z,4.47
2022-12-14T18:21:44.640Z,4.87
2022-12-14T18:24:15.353Z,4.97
2022-12-14T18:26:41.941Z,4.37
2022-12-14T18:29:09.051Z,5.70
2022-12-14T18:31:37.273Z,5.07
2022-12-14T18:34:04.165Z,4.30
2022-12-14T18:36:30.903Z,5.10
2022-12-14T18:38:57.506Z,5.27
2022-12-14T18:41:24.765Z,3.97
2022-12-14T18:43:51.749Z,3.93
2022-12-14T18:46:18.777Z,5.07
2022-12-14T18:48:45.156Z,3.93
2022-12-14T18:51:16.668Z,4.80
2022-12-14T18:53:43.235Z,4.53
2022-12-14T18:56:11.509Z,4.40
2022-12-14T18:58:41.678Z,3.90
2022-12-14T19:01:12.208Z,4.90
2022-12-14T19:03:39.596Z,4.23
2022-12-14T19:06:42.185Z,4.03
2022-12-14T19:08:54.323Z,4.93
2022-12-14T19:11:38.812Z,4.70
2022-12-14T19:14:05.850Z,3.50
2022-12-14T19:16:32.367Z,3.53
2022-12-14T19:18:59.661Z,4.23
2022-12-14T19:21:26.322Z,4.07
2022-12-14T19:23:52.687Z,5.07
2022-12-14T19:26:21.083Z,4.67
2022-12-14T19:28:47.533Z,5.33
2022-12-14T19:31:14.785Z,4.37
2022-12-14T19:33:45.332Z,3.57
2022-12-14T19:36:11.929Z,3.80
2022-12-14T19:38:39.030Z,4.43
2022-12-14T19:41:07.060Z,4.57
2022-12-14T19:43:34.908Z,3.30
2022-12-14T19:46:05.430Z,4.47
2022-12-14T19:48:31.838Z,3.87
2022-12-14T19:51:02.217Z,4.90
2022-12-14T19:53:32.045Z,4.07
2022-12-14T19:55:58.695Z,4.53
2022-12-14T19:58:25.403Z,4.70
2022-12-14T20:00:51.890Z,4.73
2022-12-14T20:03:18.463Z,4.57
2022-12-14T20:05:55.408Z,3.40
2022-12-14T20:08:22.958Z,4.03
2022-12-14T20:10:49.517Z,4.37
2022-12-14T20:13:16.048Z,4.93
2022-12-14T20:15:47.726Z,5.50
2022-12-14T20:18:14.175Z,4.17
2022-12-14T20:20:40.619Z,5.03
2022-12-14T20:23:10.241Z,4.33
2022-12-14T20:25:36.611Z,4.47
2022-12-14T20:28:03.110Z,4.57
2022-12-14T20:30:30.494Z,4.57
2022-12-14T20:32:57.130Z,4.63
2022-12-14T20:35:23.647Z,4.30
2022-12-14T20:37:52.581Z,4.70
2022-12-14T20:40:19.944Z,4.03
2022-12-14T20:42:46.953Z,3.83
2022-12-14T20:45:13.380Z,4.07
2022-12-14T20:47:39.865Z,4.43
2022-12-14T20:50:09.577Z,4.70
2022-12-14T20:52:35.973Z,3.97
2022-12-14T20:55:02.713Z,5.07
2022-12-14T20:57:31.384Z,4.43
2022-12-14T20:59:59.470Z,4.70
2022-12-14T21:02:26.635Z,5.07
2022-12-14T21:04:53.244Z,5.03
2022-12-14T21:07:24.343Z,5.03
2022-12-14T21:09:52.672Z,5.30
2022-12-14T21:12:22.449Z,4.87
2022-12-14T21:14:53.760Z,5.70
2022-12-14T21:17:21.366Z,5.20
2022-12-14T21:19:48.052Z,5.40
2022-12-14T21:22:17.410Z,5.57
2022-12-14T21:25:02.503Z,5.60
2022-12-14T21:27:30.312Z,5.47
2022-12-14T21:29:56.666Z,6.07
2022-12-14T21:32:26.193Z,5.20
2022-12-14T21:34:52.953Z,5.43
2022-12-14T21:37:20.249Z,5.63
2022-12-14T21:39:52.389Z,5.67
2022-12-14T21:42:22.853Z,6.40
2022-12-14T21:44:50.797Z,5.70
2022-12-14T21:47:18.545Z,5.93
2022-12-14T21:49:45.531Z,4.73
2022-12-14T21:52:13.927Z,5.50
2022-12-14T21:54:41.711Z,5.03
2022-12-14T21:57:38.269Z,5.63
2022-12-14T22:00:06.394Z,5.57
2022-12-14T22:02:39.170Z,5.83
2022-12-14T22:05:07.048Z,4.80
2022-12-14T22:07:34.064Z,4.60
2022-12-14T22:10:00.491Z,4.47
2022-12-14T22:12:26.869Z,4.67
2022-12-14T22:14:53.617Z,5.13
2022-12-14T22:17:21.213Z,5.37
2022-12-14T22:19:48.819Z,7.13
2022-12-14T22:22:15.849Z,5.63
2022-12-14T22:24:42.561Z,6.23
2022-12-14T22:27:10.158Z,6.73
2022-12-14T22:29:39.012Z,5.97
2022-12-14T22:32:07.134Z,7.20
2022-12-14T22:34:33.854Z,4.20
2022-12-14T22:37:00.538Z,6.47
2022-12-14T22:39:27.073Z,5.57
2022-12-14T22:41:53.320Z,5.57
2022-12-14T22:44:19.848Z,5.23
2022-12-14T22:46:46.335Z,6.90
2022-12-14T22:49:16.591Z,6.37
2022-12-14T22:51:42.935Z,4.83
2022-12-14T22:54:11.323Z,5.50
2022-12-14T22:56:43.499Z,6.10
2022-12-14T22:59:15.485Z,5.30
2022-12-14T23:01:42.308Z,5.53
2022-12-14T23:04:10.398Z,6.73
2022-12-14T23:06:39.316Z,4.43
2022-12-14T23:09:25.916Z,5.40
2022-12-14T23:12:11.690Z,6.15
2022-12-14T23:14:59.501Z,4.88
2022-12-14T23:20:29.866Z,6.10
2022-12-14T23:23:15.249Z,7.03
2022-12-14T23:26:00.263Z,6.00
2022-12-14T23:28:47.911Z,4.40
2022-12-14T23:31:34.966Z,5.33
2022-12-14T23:34:19.770Z,5.27
2022-12-14T23:37:04.973Z,4.70
2022-12-14T23:39:49.859Z,4.47
2022-12-14T23:42:35.080Z,5.93
2022-12-14T23:45:20.075Z,4.57
2022-12-14T23:48:05.296Z,4.70
2022-12-14T23:50:50.315Z,5.47
2022-12-14T23:53:35.691Z,4.83
2022-12-14T23:56:20.966Z,5.07
2022-12-14T23:59:08.173Z,5.00
